Time;durP1;ratioP1;P1;durP2;ratioP2;P2;SDS_P1;SDS_P2;PMS_P1;PMS_P2;Temp;Humidity;BMP_temperature;BMP_pressure;BME280_temperature;BME280_humidity;BME280_pressure;Samples;Min_cycle;Max_cycle;Signal;HPM_P1;HPM_P2
2022/10/01 00:01:51;;;;;;;7.80;4.03;;;13.50;99.90;;;;;;4968894;28;20622;-75
2022/10/01 00:04:16;;;;;;;4.70;4.30;;;13.50;99.90;;;;;;4965589;28;20039;-73
2022/10/01 00:06:42;;;;;;;4.38;3.97;;;13.30;99.90;;;;;;4962216;28;20359;-76
2022/10/01 00:09:08;;;;;;;7.85;4.88;;;13.20;99.90;;;;;;4966550;28;20027;-75
2022/10/01 00:11:38;;;;;;;5.72;4.53;;;13.00;99.90;;;;;;4961189;28;20038;-74
2022/10/01 00:14:04;;;;;;;6.45;4.85;;;12.80;99.90;;;;;;4968530;28;20030;-76
2022/10/01 00:16:30;;;;;;;7.32;5.22;;;12.80;99.90;;;;;;4966894;28;20038;-74
2022/10/01 00:18:56;;;;;;;5.47;4.97;;;12.80;99.90;;;;;;4966187;28;20166;-76
2022/10/01 00:21:26;;;;;;;7.68;5.10;;;12.60;99.90;;;;;;4963747;28;20106;-75
2022/10/01 00:24:00;;;;;;;12.20;5.55;;;12.50;99.90;;;;;;4966894;28;20019;-75
2022/10/01 00:26:29;;;;;;;5.30;4.75;;;12.40;99.90;;;;;;4970570;28;20035;-76
2022/10/01 00:29:09;;;;;;;6.82;5.18;;;12.30;99.90;;;;;;4967617;28;20090;-76
2022/10/01 00:31:35;;;;;;;7.00;5.00;;;12.20;99.90;;;;;;4969542;28;20023;-75
2022/10/01 00:34:05;;;;;;;6.68;4.70;;;12.20;99.90;;;;;;4947753;28;20133;-75
2022/10/01 00:36:32;;;;;;;5.22;4.72;;;12.10;99.90;;;;;;4964010;28;20492;-75
2022/10/01 00:38:59;;;;;;;6.53;5.00;;;12.20;99.90;;;;;;4966363;28;20029;-76
2022/10/01 00:41:29;;;;;;;7.03;4.93;;;12.20;99.90;;;;;;4967044;28;20026;-74
2022/10/01 00:43:57;;;;;;;5.50;4.80;;;12.20;99.90;;;;;;4948989;28;20027;-77
2022/10/01 00:46:26;;;;;;;5.40;4.82;;;12.20;99.90;;;;;;4946595;28;20090;-76
2022/10/01 00:49:07;;;;;;;7.47;5.53;;;12.10;99.90;;;;;;4968397;28;20032;-76
2022/10/01 00:51:38;;;;;;;5.32;4.75;;;12.10;99.90;;;;;;4971460;28;20471;-75
2022/10/01 00:54:16;;;;;;;4.82;4.30;;;12.10;99.90;;;;;;4970267;28;20042;-77
2022/10/01 00:56:45;;;;;;;10.93;4.80;;;12.10;99.90;;;;;;4973188;28;20467;-75
2022/10/01 00:59:11;;;;;;;6.85;5.07;;;12.10;99.90;;;;;;4966615;28;20027;-77
2022/10/01 01:01:40;;;;;;;8.25;4.53;;;12.10;99.90;;;;;;4959007;28;20118;-76
2022/10/01 01:04:15;;;;;;;5.85;4.53;;;12.10;99.90;;;;;;4956917;28;20024;-76
2022/10/01 01:06:46;;;;;;;8.63;4.60;;;12.00;99.90;;;;;;4975771;28;20043;-76
2022/10/01 01:09:12;;;;;;;6.80;4.97;;;12.00;99.90;;;;;;4971946;28;20040;-78
2022/10/01 01:12:16;;;;;;;6.75;4.90;;;12.00;99.90;;;;;;4953459;28;20027;-77
2022/10/01 01:15:07;;;;;;;5.93;4.43;;;12.00;99.90;;;;;;4966785;28;20099;-80
2022/10/01 01:18:04;;;;;;;5.85;4.35;;;12.00;99.90;;;;;;4970208;28;20037;-79
2022/10/01 01:21:06;;;;;;;5.43;3.97;;;12.00;99.90;;;;;;4966925;28;20033;-81
2022/10/01 01:23:47;;;;;;;7.63;4.40;;;12.00;99.90;;;;;;4967323;28;20031;-77
2022/10/01 01:26:41;;;;;;;4.80;3.97;;;12.10;99.90;;;;;;4968352;28;20031;-77
2022/10/01 01:29:17;;;;;;;4.75;3.90;;;12.10;99.90;;;;;;4969759;28;20571;-79
2022/10/01 01:31:45;;;;;;;5.45;4.15;;;12.00;99.90;;;;;;4970955;28;20037;-79
2022/10/01 01:34:16;;;;;;;5.85;4.13;;;12.00;99.90;;;;;;4970881;28;20523;-81
2022/10/01 01:36:51;;;;;;;6.15;4.13;;;12.00;99.90;;;;;;4969402;28;20035;-81
2022/10/01 01:39:21;;;;;;;8.02;4.38;;;12.10;99.90;;;;;;4967954;28;20019;-79
2022/10/01 01:41:54;;;;;;;5.38;3.92;;;12.10;99.90;;;;;;4966243;28;20036;-81
2022/10/01 01:44:25;;;;;;;7.05;4.38;;;12.00;99.90;;;;;;4967350;28;20428;-81
2022/10/01 01:46:55;;;;;;;9.48;4.72;;;12.00;99.90;;;;;;4948475;28;20031;-80
2022/10/01 01:49:22;;;;;;;4.88;4.25;;;11.90;99.90;;;;;;4964842;28;20106;-77
2022/10/01 01:51:50;;;;;;;4.75;4.30;;;12.00;99.90;;;;;;4964793;28;20030;-79
2022/10/01 01:54:17;;;;;;;8.63;3.90;;;12.00;99.90;;;;;;4963977;28;20055;-78
2022/10/01 01:56:43;;;;;;;5.90;4.80;;;11.90;99.90;;;;;;4965870;28;20031;-76
2022/10/01 01:59:11;;;;;;;3.80;3.42;;;11.90;99.90;;;;;;4964366;28;20031;-78
2022/10/01 02:01:38;;;;;;;6.97;5.30;;;11.80;99.90;;;;;;4964302;28;20027;-78
2022/10/01 02:04:10;;;;;;;4.85;4.40;;;11.80;99.90;;;;;;4964165;28;20105;-79
2022/10/01 02:07:17;;;;;;;5.50;5.00;;;11.70;99.90;;;;;;4951749;28;20035;-78
2022/10/01 02:10:09;;;;;;;5.90;5.38;;;11.70;99.90;;;;;;4969730;28;20068;-79
2022/10/01 02:12:46;;;;;;;10.07;5.63;;;11.70;99.90;;;;;;4958677;28;20085;-77
2022/10/01 02:15:45;;;;;;;6.22;4.90;;;11.70;99.90;;;;;;4968481;28;20054;-78
2022/10/01 02:18:15;;;;;;;10.25;5.28;;;11.70;99.90;;;;;;4966001;28;20097;-79
2022/10/01 02:21:07;;;;;;;7.80;5.68;;;11.70;99.90;;;;;;4962087;28;20026;-77
2022/10/01 02:23:43;;;;;;;7.33;3.93;;;11.70;99.90;;;;;;4953048;28;20046;-76
2022/10/01 02:26:15;;;;;;;5.10;4.18;;;12.20;99.90;;;;;;4962107;28;20114;-75
2022/10/01 02:28:41;;;;;;;7.13;5.03;;;12.30;99.90;;;;;;4965633;28;20045;-79
2022/10/01 02:31:12;;;;;;;4.93;4.43;;;12.40;99.90;;;;;;4950111;28;20325;-81
2022/10/01 02:33:42;;;;;;;5.47;4.97;;;12.30;99.90;;;;;;4962717;28;20026;-78
2022/10/01 02:36:11;;;;;;;8.85;5.53;;;12.40;99.90;;;;;;4968017;28;20070;-77
2022/10/01 02:38:40;;;;;;;5.80;5.15;;;12.50;99.90;;;;;;4957294;28;20066;-80
2022/10/01 02:41:10;;;;;;;6.22;4.78;;;12.40;99.90;;;;;;4969600;28;20055;-74
2022/10/01 02:44:05;;;;;;;9.10;5.43;;;12.30;99.90;;;;;;4968119;28;20050;-76
2022/10/01 02:46:59;;;;;;;6.60;5.43;;;12.40;99.90;;;;;;4962045;28;20050;-77
2022/10/01 02:49:29;;;;;;;6.38;5.03;;;12.30;99.90;;;;;;4970786;28;20452;-79
2022/10/01 02:52:01;;;;;;;5.90;5.25;;;12.40;99.90;;;;;;4971119;28;20031;-77
2022/10/01 02:54:31;;;;;;;6.75;4.47;;;12.40;99.90;;;;;;4966634;28;20023;-77
2022/10/01 02:59:44;;;;;;;8.32;5.45;;;12.40;99.90;;;;;;4964462;28;20074;-76
2022/10/01 03:02:12;;;;;;;4.50;4.10;;;12.40;99.90;;;;;;4971179;28;20536;-79
2022/10/01 03:04:40;;;;;;;8.38;4.28;;;12.30;99.90;;;;;;4968281;28;20031;-78
2022/10/01 03:07:06;;;;;;;6.82;4.20;;;12.40;99.90;;;;;;4966831;28;20027;-76
2022/10/01 03:09:33;;;;;;;4.05;3.55;;;12.20;99.90;;;;;;4967239;28;20023;-78
2022/10/01 03:12:00;;;;;;;3.95;3.50;;;12.20;99.90;;;;;;4948483;28;20579;-79
2022/10/01 03:14:26;;;;;;;6.28;4.40;;;12.10;99.90;;;;;;4956468;28;20031;-83
2022/10/01 03:16:54;;;;;;;4.88;4.38;;;12.10;99.90;;;;;;4969745;28;20527;-80
2022/10/01 03:19:20;;;;;;;5.40;3.55;;;12.10;99.90;;;;;;4951051;28;20046;-78
2022/10/01 03:21:47;;;;;;;3.53;3.22;;;12.10;99.90;;;;;;4947913;28;20019;-77
2022/10/01 03:24:12;;;;;;;4.07;3.70;;;12.10;99.90;;;;;;4967966;28;20054;-83
2022/10/01 03:26:38;;;;;;;5.95;3.85;;;12.10;99.90;;;;;;4967529;28;20026;-80
2022/10/01 03:29:04;;;;;;;5.95;3.90;;;12.10;99.90;;;;;;4968176;28;20027;-84
2022/10/01 03:31:29;;;;;;;4.45;3.67;;;12.10;99.90;;;;;;4949973;28;20084;-83
2022/10/01 03:33:59;;;;;;;3.67;3.38;;;12.10;99.90;;;;;;4950472;28;20753;-82
2022/10/01 03:36:27;;;;;;;3.42;3.13;;;12.10;99.90;;;;;;4966712;28;20651;-79
2022/10/01 03:38:55;;;;;;;3.88;3.15;;;12.10;99.90;;;;;;4972292;28;20023;-83
2022/10/01 03:41:21;;;;;;;3.78;3.25;;;12.00;99.90;;;;;;4971677;28;20019;-84
2022/10/01 03:43:46;;;;;;;2.97;2.78;;;12.10;99.90;;;;;;4969258;28;20042;-83
2022/10/01 03:46:15;;;;;;;3.15;2.90;;;12.20;99.90;;;;;;4965676;28;20043;-81
2022/10/01 03:48:40;;;;;;;3.88;2.50;;;12.30;99.90;;;;;;4957832;28;20031;-80
2022/10/01 03:51:08;;;;;;;2.72;2.50;;;12.20;99.90;;;;;;4967927;28;20046;-76
2022/10/01 03:53:34;;;;;;;2.60;2.40;;;12.30;99.90;;;;;;4968803;28;20069;-81
2022/10/01 03:55:59;;;;;;;2.67;2.47;;;12.40;99.90;;;;;;4971451;28;20428;-80
2022/10/01 03:58:26;;;;;;;2.45;2.25;;;12.30;99.90;;;;;;4973489;28;20031;-83
2022/10/01 04:00:54;;;;;;;2.70;2.50;;;12.30;99.90;;;;;;4954494;28;20463;-77
2022/10/01 04:03:19;;;;;;;2.08;1.98;;;12.50;99.90;;;;;;4971761;28;20023;-82
2022/10/01 04:05:45;;;;;;;2.50;2.30;;;12.40;99.90;;;;;;4973765;28;20363;-78
2022/10/01 04:08:12;;;;;;;2.50;2.30;;;12.40;99.90;;;;;;4974356;28;20066;-82
2022/10/01 04:10:38;;;;;;;3.00;2.30;;;12.50;99.90;;;;;;4966997;28;20162;-84
2022/10/01 04:13:04;;;;;;;2.28;1.80;;;12.40;99.90;;;;;;4967151;28;20056;-77
2022/10/01 04:15:33;;;;;;;3.85;2.00;;;12.50;99.90;;;;;;4973566;28;20023;-77
2022/10/01 04:18:04;;;;;;;2.33;2.08;;;12.60;99.90;;;;;;4973337;28;20023;-77
2022/10/01 04:20:32;;;;;;;3.60;1.98;;;12.50;99.90;;;;;;4966027;28;20027;-83
2022/10/01 04:23:03;;;;;;;3.72;2.13;;;12.40;99.90;;;;;;4973581;28;20030;-84
2022/10/01 04:25:34;;;;;;;2.17;2.00;;;12.50;99.90;;;;;;4968095;28;20120;-76
2022/10/01 04:28:04;;;;;;;1.70;1.60;;;12.50;99.90;;;;;;4969493;28;20019;-80
2022/10/01 04:30:32;;;;;;;1.80;1.70;;;12.50;99.90;;;;;;4974901;28;20466;-79
2022/10/01 04:33:00;;;;;;;1.73;1.45;;;12.60;99.90;;;;;;4969912;28;20429;-76
2022/10/01 04:35:26;;;;;;;2.22;1.70;;;12.50;99.90;;;;;;4970357;28;20019;-84
2022/10/01 04:38:06;;;;;;;1.67;1.58;;;12.50;99.90;;;;;;4974995;28;20047;-76
2022/10/01 04:40:34;;;;;;;1.80;1.70;;;12.50;99.90;;;;;;4968901;28;20043;-79
2022/10/01 04:43:03;;;;;;;2.25;1.42;;;12.50;99.90;;;;;;4971150;28;20019;-84
2022/10/01 04:45:29;;;;;;;3.63;1.70;;;12.50;99.90;;;;;;4965971;28;20019;-79
2022/10/01 04:47:58;;;;;;;1.67;1.58;;;12.60;99.90;;;;;;4967564;28;20038;-82
2022/10/01 04:50:25;;;;;;;2.20;1.58;;;12.60;99.90;;;;;;4969502;28;20031;-76
2022/10/01 04:52:51;;;;;;;4.80;1.55;;;12.60;99.90;;;;;;4968474;28;20528;-80
2022/10/01 04:55:19;;;;;;;1.60;1.50;;;12.50;99.90;;;;;;4964461;28;20030;-76
2022/10/01 04:57:44;;;;;;;2.15;1.50;;;12.60;99.90;;;;;;4962651;28;20023;-78
2022/10/01 05:00:13;;;;;;;1.40;1.30;;;12.70;99.90;;;;;;4949976;28;20030;-77
2022/10/01 05:02:42;;;;;;;1.50;1.40;;;12.70;99.90;;;;;;4948574;28;21438;-79
2022/10/01 05:05:11;;;;;;;1.17;1.08;;;12.70;99.90;;;;;;4964243;28;20046;-77
2022/10/01 05:07:39;;;;;;;1.50;1.40;;;12.80;99.90;;;;;;4965986;28;20062;-79
2022/10/01 05:10:06;;;;;;;1.10;1.00;;;12.70;99.90;;;;;;4956542;28;20089;-80
2022/10/01 05:12:31;;;;;;;1.60;1.50;;;12.70;99.90;;;;;;4968084;28;20037;-81
2022/10/01 05:14:57;;;;;;;1.00;1.00;;;12.70;99.90;;;;;;4969047;28;20035;-79
2022/10/01 05:17:23;;;;;;;1.15;1.10;;;12.70;99.90;;;;;;4971067;28;20057;-81
2022/10/01 05:19:49;;;;;;;3.05;1.10;;;12.70;99.90;;;;;;4964287;28;20027;-79
2022/10/01 05:22:15;;;;;;;1.00;1.00;;;12.80;99.90;;;;;;4962481;28;20110;-79
2022/10/01 05:24:44;;;;;;;1.92;1.02;;;12.80;99.90;;;;;;4964827;28;20027;-78
2022/10/01 05:27:12;;;;;;;4.25;1.17;;;12.90;99.90;;;;;;4966165;28;20093;-78
2022/10/01 05:29:40;;;;;;;2.70;0.80;;;12.90;99.90;;;;;;4968623;28;20444;-80
2022/10/01 05:32:11;;;;;;;0.90;0.85;;;12.80;99.90;;;;;;4967716;28;20535;-76
2022/10/01 05:34:37;;;;;;;1.40;0.70;;;12.90;99.90;;;;;;4947642;28;20045;-78
2022/10/01 05:37:06;;;;;;;1.05;1.05;;;12.80;99.90;;;;;;4967613;28;20030;-79
2022/10/01 05:39:32;;;;;;;0.90;0.70;;;13.00;99.90;;;;;;4964064;28;20023;-76
2022/10/01 05:41:58;;;;;;;1.00;0.80;;;12.90;99.90;;;;;;4951331;28;20126;-77
2022/10/01 05:44:26;;;;;;;1.02;0.70;;;12.90;99.90;;;;;;4962349;28;20020;-79
2022/10/01 05:46:52;;;;;;;0.70;0.70;;;13.00;99.90;;;;;;4967463;28;20054;-79
2022/10/01 05:49:18;;;;;;;1.90;0.90;;;13.00;99.90;;;;;;4963144;28;20344;-76
2022/10/01 05:51:46;;;;;;;0.65;0.65;;;13.10;99.90;;;;;;4942329;28;20082;-79
2022/10/01 05:54:18;;;;;;;1.77;0.80;;;13.00;99.90;;;;;;4962336;28;20444;-78
2022/10/01 05:56:46;;;;;;;0.60;0.60;;;13.10;99.90;;;;;;4963017;28;20523;-84
2022/10/01 05:59:11;;;;;;;0.95;0.77;;;13.00;99.90;;;;;;4958938;28;20120;-80
2022/10/01 06:01:37;;;;;;;1.02;0.77;;;13.00;99.90;;;;;;4962637;28;20459;-77
2022/10/01 06:04:02;;;;;;;0.77;0.50;;;13.10;99.90;;;;;;4965120;28;20038;-82
2022/10/01 06:06:28;;;;;;;0.73;0.70;;;13.10;99.90;;;;;;4953785;28;20655;-76
2022/10/01 06:08:56;;;;;;;0.80;0.80;;;13.20;99.90;;;;;;4961601;28;20026;-75
2022/10/01 06:11:25;;;;;;;0.70;0.70;;;13.20;99.90;;;;;;4964712;28;20520;-74
2022/10/01 06:13:53;;;;;;;0.50;0.50;;;13.30;99.90;;;;;;4969271;28;20035;-79
2022/10/01 06:16:21;;;;;;;0.80;0.80;;;13.30;99.90;;;;;;4957061;28;20471;-78
2022/10/01 06:18:48;;;;;;;0.57;0.57;;;13.30;99.90;;;;;;4967027;28;20042;-76
2022/10/01 06:21:16;;;;;;;0.50;0.50;;;13.30;99.90;;;;;;4967370;28;20021;-76
2022/10/01 06:23:43;;;;;;;0.55;0.55;;;13.40;99.90;;;;;;4962389;28;20031;-76
2022/10/01 06:26:09;;;;;;;0.70;0.70;;;13.40;99.90;;;;;;4963617;28;20422;-76
2022/10/01 06:28:34;;;;;;;0.70;0.70;;;13.40;99.90;;;;;;4965336;28;20061;-77
2022/10/01 06:31:01;;;;;;;0.75;0.70;;;13.40;99.90;;;;;;4964272;28;20449;-77
2022/10/01 06:33:27;;;;;;;3.17;0.88;;;13.40;99.90;;;;;;4971454;28;20262;-77
2022/10/01 06:35:54;;;;;;;1.13;0.77;;;13.40;99.90;;;;;;4965449;28;20034;-76
2022/10/01 06:38:21;;;;;;;0.80;0.80;;;13.40;99.90;;;;;;4946384;28;20138;-78
2022/10/01 06:40:54;;;;;;;1.83;0.70;;;13.60;99.90;;;;;;4949847;28;20100;-77
2022/10/01 06:43:21;;;;;;;0.95;0.70;;;13.60;99.90;;;;;;4956872;28;20057;-78
2022/10/01 06:45:47;;;;;;;0.80;0.80;;;13.60;99.90;;;;;;4952462;28;20046;-79
2022/10/01 06:48:14;;;;;;;0.77;0.77;;;13.60;99.90;;;;;;4964100;28;20033;-75
2022/10/01 06:50:44;;;;;;;2.47;0.90;;;13.60;99.90;;;;;;4955096;28;20360;-78
2022/10/01 06:53:16;;;;;;;0.93;0.93;;;13.60;99.90;;;;;;4962314;28;20035;-80
2022/10/01 06:55:43;;;;;;;2.00;1.10;;;13.70;99.90;;;;;;4954496;28;20495;-75
2022/10/01 06:58:13;;;;;;;1.05;1.00;;;13.70;99.90;;;;;;4967958;28;20027;-77
2022/10/01 07:00:39;;;;;;;1.20;1.13;;;13.80;99.90;;;;;;4951769;28;20058;-84
2022/10/01 07:03:09;;;;;;;1.85;1.10;;;13.60;99.90;;;;;;4946430;28;20019;-76
2022/10/01 07:05:39;;;;;;;0.93;0.93;;;13.70;99.90;;;;;;4936142;28;20035;-76
2022/10/01 07:08:05;;;;;;;1.30;1.20;;;13.70;99.90;;;;;;4968375;28;20429;-77
2022/10/01 07:10:33;;;;;;;1.20;1.10;;;13.70;99.90;;;;;;4964989;28;20027;-73
2022/10/01 07:13:07;;;;;;;2.80;1.70;;;13.80;99.90;;;;;;4971681;28;20373;-81
2022/10/01 07:15:33;;;;;;;1.30;1.30;;;13.70;99.90;;;;;;4955935;28;20425;-77
2022/10/01 07:17:59;;;;;;;1.52;1.42;;;13.90;99.90;;;;;;4964192;28;20031;-77
2022/10/01 07:20:32;;;;;;;1.70;1.38;;;14.00;99.90;;;;;;4965916;28;20023;-79
2022/10/01 07:22:58;;;;;;;1.45;1.35;;;13.90;99.90;;;;;;4963022;28;20034;-79
2022/10/01 07:25:25;;;;;;;2.83;1.35;;;14.10;99.90;;;;;;4967230;28;20114;-79
2022/10/01 07:28:03;;;;;;;1.27;1.25;;;14.20;99.90;;;;;;4969872;28;20082;-79
2022/10/01 07:30:28;;;;;;;3.17;1.42;;;14.20;99.90;;;;;;4951440;28;20419;-71
2022/10/01 07:32:57;;;;;;;2.47;1.48;;;14.20;99.90;;;;;;4956299;28;20058;-78
2022/10/01 07:35:25;;;;;;;2.15;1.60;;;14.30;99.90;;;;;;4961197;28;20431;-81
2022/10/01 07:37:54;;;;;;;4.28;1.83;;;14.30;99.90;;;;;;4964070;28;20035;-81
2022/10/01 07:40:19;;;;;;;2.08;1.88;;;14.30;99.90;;;;;;4965807;28;20441;-76
2022/10/01 07:42:55;;;;;;;3.58;1.85;;;14.40;99.90;;;;;;4966286;28;20112;-77
2022/10/01 07:45:24;;;;;;;4.70;2.30;;;14.40;99.90;;;;;;4963687;28;20420;-76
2022/10/01 07:47:57;;;;;;;2.63;2.40;;;14.50;99.90;;;;;;4961342;28;20033;-75
2022/10/01 07:50:24;;;;;;;8.82;4.35;;;14.70;99.90;;;;;;4945618;28;20468;-78
2022/10/01 07:52:54;;;;;;;10.73;4.78;;;14.60;99.90;;;;;;4964008;28;20392;-77
2022/10/01 07:55:21;;;;;;;4.05;2.40;;;14.60;99.90;;;;;;4940985;28;20089;-78
2022/10/01 07:57:51;;;;;;;4.45;2.20;;;14.70;99.90;;;;;;4955528;28;20093;-77
2022/10/01 08:00:20;;;;;;;4.43;2.15;;;14.60;99.90;;;;;;4962486;28;20046;-79
2022/10/01 08:02:48;;;;;;;2.80;2.33;;;14.40;99.90;;;;;;4951405;28;20094;-77
2022/10/01 08:05:16;;;;;;;4.45;2.70;;;14.50;99.90;;;;;;4946708;28;20428;-75
2022/10/01 08:07:45;;;;;;;2.33;2.20;;;14.70;99.90;;;;;;4961166;28;20467;-78
2022/10/01 08:10:15;;;;;;;4.30;2.80;;;14.80;99.90;;;;;;4952761;28;20941;-76
2022/10/01 08:12:41;;;;;;;3.05;2.83;;;15.10;99.90;;;;;;4963397;28;20058;-77
2022/10/01 08:15:11;;;;;;;25.50;8.95;;;15.10;99.90;;;;;;4949238;28;20281;-75
2022/10/01 08:17:38;;;;;;;5.07;3.20;;;15.10;99.90;;;;;;4949159;28;20038;-76
2022/10/01 08:20:05;;;;;;;4.20;2.63;;;15.10;99.90;;;;;;4958791;28;20627;-76
2022/10/01 08:22:31;;;;;;;5.35;2.75;;;15.10;99.90;;;;;;4963039;28;20077;-76
2022/10/01 08:24:59;;;;;;;3.05;2.85;;;15.10;99.90;;;;;;4960044;28;20084;-76
2022/10/01 08:27:25;;;;;;;4.55;2.50;;;15.00;99.90;;;;;;4964549;28;20051;-78
2022/10/01 08:29:52;;;;;;;2.95;2.63;;;15.10;99.90;;;;;;4962040;28;20042;-76
2022/10/01 08:32:18;;;;;;;3.25;2.42;;;15.10;99.90;;;;;;4959856;28;20524;-77
2022/10/01 08:34:43;;;;;;;3.42;3.13;;;15.20;99.90;;;;;;4960538;28;20109;-79
2022/10/01 08:37:11;;;;;;;3.60;2.83;;;15.20;99.90;;;;;;4964935;28;20420;-78
2022/10/01 08:39:39;;;;;;;3.00;2.80;;;15.50;99.90;;;;;;4963774;28;20031;-77
2022/10/01 08:42:32;;;;;;;6.30;3.25;;;15.60;99.90;;;;;;4962955;28;20038;-78
2022/10/01 08:45:03;;;;;;;6.10;3.60;;;15.70;99.90;;;;;;4955494;28;20043;-77
2022/10/01 08:47:42;;;;;;;3.30;3.00;;;15.80;99.90;;;;;;4962441;28;20035;-81
2022/10/01 08:50:14;;;;;;;4.88;3.17;;;15.70;99.90;;;;;;4963338;28;20332;-77
2022/10/01 08:52:55;;;;;;;6.15;3.22;;;15.70;99.90;;;;;;4965240;28;20102;-78
2022/10/01 08:55:25;;;;;;;53.53;23.85;;;15.60;99.90;;;;;;4961635;28;20031;-75
2022/10/01 08:57:57;;;;;;;34.08;18.90;;;15.70;99.90;;;;;;4961304;28;20574;-75
2022/10/01 09:00:22;;;;;;;5.97;3.47;;;15.70;99.90;;;;;;4955026;28;20086;-77
2022/10/01 09:02:51;;;;;;;5.13;3.42;;;15.80;99.90;;;;;;4961356;28;20397;-78
2022/10/01 09:05:38;;;;;;;9.57;3.70;;;15.90;99.90;;;;;;4961381;28;20033;-75
2022/10/01 09:08:42;;;;;;;3.83;3.47;;;16.10;99.90;;;;;;4962123;28;20026;-78
2022/10/01 09:11:11;;;;;;;;;;;16.10;99.90;;;;;;4964349;28;20244;-78
2022/10/01 09:13:50;;;;;;;4.93;3.53;;;16.00;99.90;;;;;;4946339;28;19921;-78
2022/10/01 09:16:37;;;;;;;8.38;4.25;;;16.80;99.90;;;;;;4960286;28;20548;-78
2022/10/01 09:19:21;;;;;;;3.85;3.42;;;18.10;99.90;;;;;;4959426;28;20039;-76
2022/10/01 09:21:56;;;;;;;7.95;4.15;;;17.90;99.90;;;;;;4941491;28;20038;-77
2022/10/01 09:24:42;;;;;;;4.60;4.20;;;16.90;99.90;;;;;;4959225;28;20063;-77
2022/10/01 09:27:29;;;;;;;4.20;3.80;;;16.50;99.90;;;;;;4964107;28;20436;-77
2022/10/01 09:30:25;;;;;;;5.97;3.58;;;16.40;99.90;;;;;;4950452;28;20061;-79
2022/10/01 09:33:09;;;;;;;8.52;4.43;;;16.30;99.90;;;;;;4961254;28;20083;-78
2022/10/01 09:35:47;;;;;;;9.10;4.13;;;16.50;99.90;;;;;;4964703;28;20084;-78
2022/10/01 09:38:21;;;;;;;9.75;3.83;;;17.10;99.90;;;;;;4948940;28;20499;-78
2022/10/01 09:40:57;;;;;;;8.80;3.60;;;17.30;99.90;;;;;;4949828;28;20039;-78
2022/10/01 09:43:27;;;;;;;36.65;16.35;;;16.90;99.90;;;;;;4959906;28;20042;-78
2022/10/01 09:45:52;;;;;;;7.40;3.53;;;16.90;99.90;;;;;;4958036;28;20027;-77
2022/10/01 09:48:28;;;;;;;5.57;3.60;;;17.10;99.90;;;;;;4972896;28;20049;-77
2022/10/01 09:51:02;;;;;;;6.15;3.38;;;17.30;99.90;;;;;;4968952;28;20101;-78
2022/10/01 09:53:58;;;;;;;3.53;3.03;;;17.60;99.90;;;;;;4953059;28;20031;-77
2022/10/01 09:56:29;;;;;;;6.10;3.22;;;17.50;99.90;;;;;;4968473;28;20035;-76
2022/10/01 09:59:00;;;;;;;3.40;2.50;;;17.50;99.90;;;;;;4973143;28;20069;-74
2022/10/01 10:01:39;;;;;;;3.55;2.78;;;17.10;99.90;;;;;;4970619;28;20046;-77
2022/10/01 10:04:05;;;;;;;4.30;2.97;;;17.00;99.90;;;;;;4970269;28;20062;-77
2022/10/01 10:06:31;;;;;;;3.65;2.38;;;17.60;99.90;;;;;;4957372;28;20073;-76
2022/10/01 10:09:00;;;;;;;2.47;2.28;;;17.60;99.90;;;;;;4955268;28;20597;-77
2022/10/01 10:11:31;;;;;;;3.22;3.03;;;18.40;99.90;;;;;;4971860;28;20138;-75
2022/10/01 10:14:02;;;;;;;3.80;2.70;;;18.50;99.90;;;;;;4966199;28;20034;-77
2022/10/01 10:16:33;;;;;;;2.95;2.30;;;18.40;99.90;;;;;;4969873;28;20069;-77
2022/10/01 10:19:25;;;;;;;3.58;2.40;;;18.70;99.90;;;;;;4954791;28;20349;-76
2022/10/01 10:21:55;;;;;;;3.30;2.63;;;19.60;99.90;;;;;;4964759;28;20026;-76
2022/10/01 10:24:30;;;;;;;3.58;2.53;;;19.90;99.90;;;;;;4967260;28;20044;-77
2022/10/01 10:26:59;;;;;;;4.47;2.47;;;20.00;99.90;;;;;;4953397;28;20058;-76
2022/10/01 10:29:34;;;;;;;5.47;2.38;;;20.40;99.90;;;;;;4969778;28;20026;-76
2022/10/01 10:32:28;;;;;;;8.02;2.35;;;20.10;99.90;;;;;;4953379;28;20190;-76
2022/10/01 10:35:03;;;;;;;3.13;1.90;;;19.80;99.90;;;;;;4969016;28;20026;-75
2022/10/01 10:37:35;;;;;;;2.50;1.85;;;19.70;99.90;;;;;;4970467;28;20035;-76
2022/10/01 10:40:04;;;;;;;6.75;2.13;;;19.70;99.90;;;;;;4965513;28;20029;-76
2022/10/01 10:42:32;;;;;;;3.15;1.65;;;19.60;99.90;;;;;;4967813;28;20031;-77
2022/10/01 10:45:02;;;;;;;4.50;1.73;;;19.40;99.90;;;;;;4954969;28;20027;-76
2022/10/01 10:47:30;;;;;;;5.20;2.28;;;19.40;99.90;;;;;;4968645;28;20054;-77
2022/10/01 10:50:03;;;;;;;4.97;1.92;;;19.60;99.90;;;;;;4968226;28;20058;-76
2022/10/01 10:52:32;;;;;;;2.28;1.50;;;20.20;99.90;;;;;;4970576;28;20023;-73
2022/10/01 10:55:01;;;;;;;5.75;1.80;;;20.30;99.90;;;;;;4965939;28;20070;-75
2022/10/01 10:57:31;;;;;;;7.22;1.95;;;20.10;99.90;;;;;;4954505;28;20452;-75
2022/10/01 11:00:12;;;;;;;4.50;1.80;;;19.60;99.90;;;;;;4964813;28;20033;-78
2022/10/01 11:02:47;;;;;;;6.78;1.80;;;19.30;99.90;;;;;;4948644;28;20113;-75
2022/10/01 11:05:27;;;;;;;8.48;2.10;;;19.30;99.90;;;;;;4966817;28;20034;-75
2022/10/01 11:08:01;;;;;;;2.92;1.00;;;19.40;99.90;;;;;;4961409;28;20077;-76
2022/10/01 11:10:42;;;;;;;3.30;1.00;;;19.10;99.90;;;;;;4953759;28;20646;-75
2022/10/01 11:13:16;;;;;;;1.08;0.95;;;18.60;99.90;;;;;;4967983;28;20035;-75
2022/10/01 11:16:00;;;;;;;4.20;0.90;;;18.50;99.90;;;;;;4960111;28;20039;-75
2022/10/01 11:18:26;;;;;;;3.53;0.90;;;18.30;99.90;;;;;;4967439;28;20467;-76
2022/10/01 11:21:16;;;;;;;5.10;1.55;;;18.00;99.90;;;;;;4948999;28;20699;-75
2022/10/01 11:24:06;;;;;;;10.02;2.05;;;17.60;99.90;;;;;;4966951;28;20026;-76
2022/10/01 11:26:54;;;;;;;5.90;1.58;;;16.80;99.90;;;;;;4963892;28;20046;-77
2022/10/01 11:30:02;;;;;;;5.55;2.00;;;16.00;99.90;;;;;;4964675;28;20101;-77
2022/10/01 11:32:48;;;;;;;9.23;1.88;;;15.70;99.90;;;;;;4955901;28;20109;-77
2022/10/01 11:35:41;;;;;;;5.07;1.50;;;15.60;99.90;;;;;;4966176;28;20033;-78
2022/10/01 11:38:28;;;;;;;9.18;2.30;;;15.60;99.90;;;;;;4970904;28;20050;-78
2022/10/01 11:41:14;;;;;;;5.43;2.72;;;15.60;99.90;;;;;;4943652;28;20024;-76
2022/10/01 11:43:50;;;;;;;7.40;2.30;;;15.60;99.90;;;;;;4955773;28;20061;-76
2022/10/01 11:46:26;;;;;;;9.02;2.78;;;15.70;99.90;;;;;;4943909;28;20031;-74
2022/10/01 11:49:15;;;;;;;9.80;2.70;;;15.80;99.90;;;;;;4965554;28;20073;-77
2022/10/01 11:51:50;;;;;;;14.27;2.30;;;16.10;99.90;;;;;;4946615;28;20662;-77
2022/10/01 11:54:25;;;;;;;5.75;2.17;;;16.50;99.90;;;;;;4955569;28;20034;-77
2022/10/01 11:59:54;;;;;;;5.75;1.70;;;16.70;99.90;;;;;;4966899;28;20042;-78
2022/10/01 12:02:30;;;;;;;11.27;1.58;;;16.80;99.90;;;;;;4965741;28;20035;-74
2022/10/01 12:05:01;;;;;;;8.85;1.90;;;17.40;99.90;;;;;;4971358;28;20408;-76
2022/10/01 12:07:52;;;;;;;8.23;1.80;;;17.90;99.90;;;;;;4965646;28;20061;-76
2022/10/01 12:10:37;;;;;;;6.20;1.40;;;18.30;99.90;;;;;;4956218;28;20049;-75
2022/10/01 12:13:09;;;;;;;3.65;1.38;;;18.90;99.90;;;;;;4969496;28;20128;-76
2022/10/01 12:15:55;;;;;;;8.70;1.45;;;19.00;99.90;;;;;;4956184;28;20030;-77
2022/10/01 12:18:31;;;;;;;7.32;1.40;;;19.00;99.90;;;;;;4964507;28;20026;-76
2022/10/01 12:21:05;;;;;;;4.55;1.35;;;18.80;99.90;;;;;;4968094;28;20037;-74
2022/10/01 12:23:49;;;;;;;8.38;1.50;;;19.00;99.90;;;;;;4962759;28;20042;-77
2022/10/01 12:26:21;;;;;;;8.50;1.80;;;19.10;99.90;;;;;;4953913;28;20060;-74
2022/10/01 12:28:53;;;;;;;9.23;1.65;;;18.90;99.90;;;;;;4966488;28;20030;-76
2022/10/01 12:31:34;;;;;;;6.28;1.52;;;18.80;99.90;;;;;;4961477;28;20035;-77
2022/10/01 12:34:39;;;;;;;10.90;1.95;;;18.50;99.90;;;;;;4947478;28;20031;-76
2022/10/01 12:37:09;;;;;;;10.95;2.03;;;18.90;99.90;;;;;;4872909;29;20037;-76
2022/10/01 12:39:37;;;;;;;12.02;1.85;;;19.10;99.90;;;;;;4872886;29;20069;-76
2022/10/01 12:42:38;;;;;;;12.13;1.83;;;19.60;99.90;;;;;;4859319;29;20040;-76
2022/10/01 12:45:21;;;;;;;11.32;2.17;;;19.70;99.90;;;;;;4852428;29;20478;-77
2022/10/01 12:48:02;;;;;;;15.25;2.13;;;19.90;99.90;;;;;;4859926;29;20136;-75
2022/10/01 12:50:42;;;;;;;11.68;1.98;;;20.00;99.90;;;;;;4871532;29;20169;-75
2022/10/01 12:53:22;;;;;;;13.18;2.10;;;19.90;99.90;;;;;;4872139;29;20047;-76
2022/10/01 12:56:20;;;;;;;10.27;2.13;;;19.50;99.90;;;;;;4874669;29;20051;-76
2022/10/01 12:59:05;;;;;;;10.93;2.15;;;19.30;99.90;;;;;;4874652;29;20033;-76
2022/10/01 13:01:42;;;;;;;13.73;2.15;;;19.80;99.90;;;;;;4875206;29;20482;-76
2022/10/01 13:04:22;;;;;;;9.00;2.28;;;20.30;99.90;;;;;;4858619;29;20895;-73
2022/10/01 13:07:18;;;;;;;8.00;1.92;;;20.60;99.90;;;;;;4877147;28;20137;-75
2022/10/01 13:09:43;;;;;;;6.90;1.98;;;20.80;99.90;;;;;;4955589;28;20053;-75
2022/10/01 13:12:37;;;;;;;8.95;1.92;;;21.30;99.90;;;;;;4965904;28;20456;-75
2022/10/01 13:15:04;;;;;;;;;;;21.80;99.90;;;;;;4944482;28;20148;-75
2022/10/01 13:17:47;;;;;;;12.65;2.08;;;21.80;99.90;;;;;;4960240;28;20350;-73
2022/10/01 13:20:22;;;;;;;5.50;2.75;;;22.10;99.90;;;;;;4964803;28;20031;-73